createdAt,value
2023-01-15T00:01:51.865Z,7.57
2023-01-15T00:04:18.401Z,4.88
2023-01-15T00:06:45.020Z,10.65
2023-01-15T00:09:15.277Z,5.28
2023-01-15T00:11:42.178Z,4.65
2023-01-15T00:14:09.234Z,4.70
2023-01-15T00:16:36.135Z,5.72
2023-01-15T00:19:04.482Z,7.55
2023-01-15T00:21:31.905Z,9.73
2023-01-15T00:24:17.347Z,5.60
2023-01-15T00:27:03.125Z,8.35
2023-01-15T00:29:29.905Z,5.85
2023-01-15T00:31:59.142Z,8.80
2023-01-15T00:34:26.673Z,5.75
2023-01-15T00:36:53.635Z,8.02
2023-01-15T00:39:20.724Z,5.82
2023-01-15T00:41:47.998Z,7.53
2023-01-15T00:44:15.369Z,4.72
2023-01-15T00:46:42.519Z,5.90
2023-01-15T00:49:09.544Z,8.77
2023-01-15T00:51:36.982Z,5.38
2023-01-15T00:54:04.350Z,9.95
2023-01-15T00:56:31.405Z,4.50
2023-01-15T00:58:58.050Z,7.07
2023-01-15T01:01:24.652Z,9.00
2023-01-15T01:03:53.095Z,8.23
2023-01-15T01:06:22.918Z,6.00
2023-01-15T01:08:49.803Z,7.30
2023-01-15T01:11:24.936Z,8.70
2023-01-15T01:16:26.527Z,7.70
2023-01-15T01:18:54.554Z,10.88
2023-01-15T01:21:21.364Z,6.53
2023-01-15T01:23:48.473Z,5.57
2023-01-15T01:26:15.400Z,6.13
2023-01-15T01:28:43.289Z,7.03
2023-01-15T01:31:10.087Z,4.78
2023-01-15T01:33:36.655Z,7.30
2023-01-15T01:36:03.852Z,7.95
2023-01-15T01:38:30.393Z,5.97
2023-01-15T01:40:57.081Z,8.13
2023-01-15T01:43:29.830Z,6.32
2023-01-15T01:45:56.900Z,5.53
2023-01-15T01:48:31.568Z,8.27
2023-01-15T01:51:01.748Z,8.55
2023-01-15T01:53:30.721Z,6.38
2023-01-15T01:55:58.519Z,6.82
2023-01-15T01:58:29.560Z,9.63
2023-01-15T02:00:57.107Z,8.23
2023-01-15T02:03:30.314Z,6.20
2023-01-15T02:06:00.710Z,7.90
2023-01-15T02:08:28.651Z,6.35
2023-01-15T02:10:56.600Z,6.10
2023-01-15T02:13:35.867Z,7.22
2023-01-15T02:16:21.787Z,9.20
2023-01-15T02:19:29.846Z,10.98
2023-01-15T02:22:21.334Z,5.50
2023-01-15T02:25:00.059Z,8.95
2023-01-15T02:27:28.574Z,6.45
2023-01-15T02:30:07.664Z,7.25
2023-01-15T02:32:48.689Z,7.57
2023-01-15T02:35:27.325Z,8.40
2023-01-15T02:37:59.981Z,6.78
2023-01-15T02:40:28.888Z,9.20
2023-01-15T02:42:57.577Z,8.05
2023-01-15T02:45:30.423Z,6.25
2023-01-15T02:48:08.544Z,7.40
2023-01-15T02:50:39.413Z,5.93
2023-01-15T02:53:11.169Z,9.75
2023-01-15T02:55:43.583Z,11.70
2023-01-15T02:58:20.723Z,6.15
2023-01-15T03:00:51.538Z,6.78
2023-01-15T03:03:23.883Z,5.75
2023-01-15T03:06:13.965Z,6.75
2023-01-15T03:08:40.843Z,8.73
2023-01-15T03:11:11.404Z,6.88
2023-01-15T03:13:56.130Z,6.70
2023-01-15T03:16:37.911Z,7.38
2023-01-15T03:19:31.405Z,9.77
2023-01-15T03:22:12.639Z,6.20
2023-01-15T03:24:47.639Z,7.82
2023-01-15T03:27:16.723Z,9.27
2023-01-15T03:29:51.814Z,10.02
2023-01-15T03:32:20.197Z,8.65
2023-01-15T03:34:53.282Z,6.75
2023-01-15T03:37:23.672Z,6.68
2023-01-15T03:39:52.536Z,6.80
2023-01-15T03:43:14.593Z,4.97
2023-01-15T03:45:44.169Z,6.80
2023-01-15T03:48:14.060Z,6.40
2023-01-15T03:50:52.835Z,10.45
2023-01-15T03:53:23.614Z,7.85
2023-01-15T03:56:06.683Z,10.68
2023-01-15T03:58:44.419Z,6.20
2023-01-15T04:01:19.818Z,7.30
2023-01-15T04:03:48.882Z,9.95
2023-01-15T04:06:17.995Z,8.93
2023-01-15T04:08:46.486Z,8.07
2023-01-15T04:11:13.520Z,8.40
2023-01-15T04:13:45.759Z,7.13
2023-01-15T04:16:27.861Z,8.15
2023-01-15T04:18:55.132Z,7.45
2023-01-15T04:21:23.113Z,8.00
2023-01-15T04:23:50.304Z,6.50
2023-01-15T04:26:17.342Z,7.18
2023-01-15T04:28:44.008Z,10.77
2023-01-15T04:31:10.734Z,6.97
2023-01-15T04:33:39.070Z,5.38
2023-01-15T04:36:07.441Z,9.50
2023-01-15T04:38:34.027Z,9.98
2023-01-15T04:41:20.977Z,8.05
2023-01-15T04:44:06.014Z,9.63
2023-01-15T04:46:35.102Z,6.45
2023-01-15T04:49:02.317Z,5.45
2023-01-15T04:51:28.849Z,9.32
2023-01-15T04:53:55.500Z,11.05
2023-01-15T04:56:22.041Z,5.05
2023-01-15T04:58:48.850Z,6.78
2023-01-15T05:01:17.299Z,7.18
2023-01-15T05:03:43.998Z,6.50
2023-01-15T05:06:10.839Z,12.38
2023-01-15T05:08:37.370Z,6.75
2023-01-15T05:11:05.294Z,6.95
2023-01-15T05:13:33.498Z,9.10
2023-01-15T05:16:18.165Z,9.32
2023-01-15T05:18:46.327Z,5.90
2023-01-15T05:21:18.497Z,9.20
2023-01-15T05:23:45.146Z,11.50
2023-01-15T05:26:11.948Z,11.10
2023-01-15T05:28:38.808Z,7.28
2023-01-15T05:31:07.816Z,8.23
2023-01-15T05:33:34.546Z,12.48
2023-01-15T05:36:05.344Z,12.43
2023-01-15T05:38:32.875Z,10.30
2023-01-15T05:40:59.470Z,11.85
2023-01-15T05:43:26.073Z,9.45
2023-01-15T05:45:52.668Z,6.03
2023-01-15T05:48:19.226Z,5.93
2023-01-15T05:50:45.771Z,14.60
2023-01-15T05:53:12.300Z,8.48
2023-01-15T05:55:38.778Z,11.25
2023-01-15T05:58:05.309Z,8.25
2023-01-15T06:00:31.869Z,12.43
2023-01-15T06:02:58.426Z,8.98
2023-01-15T06:05:24.963Z,6.93
2023-01-15T06:07:52.837Z,6.40
2023-01-15T06:10:19.503Z,11.10
2023-01-15T06:12:46.027Z,11.60
2023-01-15T06:15:12.647Z,8.48
2023-01-15T06:17:39.185Z,9.18
2023-01-15T06:20:06.170Z,7.93
2023-01-15T06:22:32.814Z,7.65
2023-01-15T06:24:59.278Z,11.18
2023-01-15T06:27:25.847Z,10.13
2023-01-15T06:29:53.806Z,9.43
2023-01-15T06:32:20.394Z,9.15
2023-01-15T06:34:46.893Z,9.50
2023-01-15T06:37:13.639Z,8.00
2023-01-15T06:39:40.166Z,14.25
2023-01-15T06:42:25.063Z,7.28
2023-01-15T06:45:09.814Z,8.48
2023-01-15T06:47:36.349Z,8.43
2023-01-15T06:50:03.101Z,12.20
2023-01-15T06:52:30.069Z,8.00
2023-01-15T06:54:56.933Z,8.30
2023-01-15T06:57:23.762Z,5.95
2023-01-15T06:59:50.904Z,6.35
2023-01-15T07:02:18.238Z,10.45
2023-01-15T07:04:45.353Z,7.75
2023-01-15T07:07:11.950Z,7.75
2023-01-15T07:09:38.529Z,11.63
2023-01-15T07:12:05.272Z,9.30
2023-01-15T07:14:33.019Z,13.25
2023-01-15T07:16:59.615Z,9.35
2023-01-15T07:19:27.302Z,6.80
2023-01-15T07:21:54.018Z,9.18
2023-01-15T07:24:20.559Z,8.80
2023-01-15T07:26:47.203Z,11.60
2023-01-15T07:29:14.100Z,8.57
2023-01-15T07:31:41.539Z,9.18
2023-01-15T07:34:08.608Z,11.05
2023-01-15T07:36:35.315Z,8.27
2023-01-15T07:39:04.872Z,6.38
2023-01-15T07:41:50.065Z,7.20
2023-01-15T07:44:35.507Z,9.00
2023-01-15T07:47:21.099Z,6.88
2023-01-15T07:49:49.055Z,8.00
2023-01-15T07:52:20.234Z,7.88
2023-01-15T07:54:47.738Z,7.32
2023-01-15T07:57:18.001Z,8.50
2023-01-15T07:59:44.594Z,7.63
2023-01-15T08:02:11.995Z,11.32
2023-01-15T08:04:38.614Z,7.68
2023-01-15T08:07:06.357Z,9.95
2023-01-15T08:09:32.908Z,8.43
2023-01-15T08:12:19.027Z,5.40
2023-01-15T08:15:04.530Z,6.75
2023-01-15T08:17:34.787Z,7.15
2023-01-15T08:20:02.769Z,6.85
2023-01-15T08:22:29.323Z,9.85
2023-01-15T08:24:55.900Z,9.10
2023-01-15T08:27:22.582Z,7.03
2023-01-15T08:29:49.183Z,7.45
2023-01-15T08:32:15.692Z,8.65
2023-01-15T08:34:42.290Z,5.88
2023-01-15T08:37:09.019Z,6.13
2023-01-15T08:39:35.486Z,8.75
2023-01-15T08:42:02.071Z,7.72
2023-01-15T08:44:28.604Z,6.18
2023-01-15T08:46:55.104Z,8.32
2023-01-15T08:49:21.889Z,3.85
2023-01-15T08:51:51.773Z,6.72
2023-01-15T08:54:20.512Z,4.65
2023-01-15T08:56:47.897Z,6.93
2023-01-15T08:59:14.503Z,6.00
2023-01-15T09:01:41.957Z,5.70
2023-01-15T09:04:13.767Z,6.47
2023-01-15T09:06:42.903Z,5.75
2023-01-15T09:09:13.334Z,5.90
2023-01-15T09:11:41.740Z,9.60
2023-01-15T09:14:09.520Z,8.43
2023-01-15T09:16:56.093Z,7.95
2023-01-15T09:19:22.761Z,5.22
2023-01-15T09:21:49.284Z,5.10
2023-01-15T09:24:15.807Z,5.43
2023-01-15T09:26:42.317Z,5.00
2023-01-15T09:29:10.290Z,5.35
2023-01-15T09:31:36.906Z,5.38
2023-01-15T09:34:03.700Z,4.97
2023-01-15T09:36:32.755Z,6.38
2023-01-15T09:39:00.987Z,7.30
2023-01-15T09:42:10.394Z,5.57
2023-01-15T09:45:14.561Z,6.63
2023-01-15T09:47:54.701Z,9.38
2023-01-15T09:51:05.567Z,6.20
2023-01-15T09:53:47.521Z,6.43
2023-01-15T09:56:22.375Z,7.30
2023-01-15T09:58:50.534Z,9.30
2023-01-15T10:01:20.763Z,7.68
2023-01-15T10:03:57.496Z,8.75
2023-01-15T10:06:36.809Z,8.40
2023-01-15T10:09:11.564Z,6.03
2023-01-15T10:12:04.847Z,8.25
2023-01-15T10:14:39.434Z,6.53
2023-01-15T10:17:17.935Z,9.30
2023-01-15T10:19:45.143Z,9.10
2023-01-15T10:22:40.639Z,9.65
2023-01-15T10:25:16.098Z,6.07
2023-01-15T10:30:22.225Z,8.40
2023-01-15T10:33:04.015Z,7.25
2023-01-15T10:35:46.775Z,6.15
2023-01-15T10:38:35.579Z,6.00
2023-01-15T10:41:17.701Z,5.97
2023-01-15T10:43:56.227Z,8.40
2023-01-15T10:46:33.504Z,8.38
2023-01-15T10:49:05.698Z,7.65
2023-01-15T10:51:54.001Z,6.90
2023-01-15T10:54:27.304Z,7.95
2023-01-15T10:57:02.191Z,4.82
2023-01-15T10:59:50.592Z,7.18
2023-01-15T11:02:28.124Z,6.47
2023-01-15T11:04:55.307Z,10.27
2023-01-15T11:07:35.938Z,4.32
2023-01-15T11:10:05.853Z,9.18
2023-01-15T11:12:50.802Z,9.23
2023-01-15T11:15:42.653Z,7.57
2023-01-15T11:18:43.582Z,13.65
2023-01-15T11:21:17.253Z,5.45
2023-01-15T11:23:44.647Z,6.72
2023-01-15T11:26:19.976Z,10.60
2023-01-15T11:28:47.185Z,8.45
2023-01-15T11:31:15.422Z,5.70
2023-01-15T11:34:02.540Z,7.82
2023-01-15T11:36:31.061Z,5.00
2023-01-15T11:38:57.937Z,4.90
2023-01-15T11:41:49.968Z,6.15
2023-01-15T11:44:36.889Z,6.47
2023-01-15T11:47:28.615Z,4.53
2023-01-15T11:50:14.168Z,5.80
2023-01-15T11:52:48.283Z,6.63
2023-01-15T11:55:21.226Z,4.97
2023-01-15T11:57:49.349Z,6.45
2023-01-15T12:00:26.885Z,6.65
2023-01-15T12:03:00.368Z,3.17
2023-01-15T12:05:35.571Z,5.30
2023-01-15T12:08:16.788Z,5.13
2023-01-15T12:11:21.082Z,5.45
2023-01-15T12:14:31.501Z,3.95
2023-01-15T12:17:06.889Z,5.10
2023-01-15T12:22:18.153Z,7.60
2023-01-15T12:25:18.321Z,4.85
2023-01-15T12:27:53.801Z,9.38
2023-01-15T12:33:22.044Z,5.30
2023-01-15T12:35:56.983Z,5.03
2023-01-15T12:38:42.234Z,3.28
2023-01-15T12:41:14.617Z,4.22
2023-01-15T12:44:04.531Z,4.65
2023-01-15T12:46:34.665Z,5.97
2023-01-15T12:49:31.387Z,6.57
2023-01-15T12:52:24.118Z,2.88
2023-01-15T12:55:24.533Z,8.02
2023-01-15T12:57:59.335Z,4.00
2023-01-15T13:00:30.851Z,5.10
2023-01-15T13:03:24.827Z,3.40
2023-01-15T13:06:08.681Z,2.95
2023-01-15T13:08:50.535Z,5.60
2023-01-15T13:11:17.373Z,4.30
2023-01-15T13:13:57.894Z,6.10
2023-01-15T13:16:39.761Z,4.70
2023-01-15T13:19:28.582Z,3.05
2023-01-15T13:22:00.132Z,2.60
2023-01-15T13:24:53.254Z,4.90
2023-01-15T13:27:37.991Z,3.00
2023-01-15T13:30:42.091Z,5.93
2023-01-15T13:33:23.377Z,8.13
2023-01-15T13:36:07.011Z,3.42
2023-01-15T13:38:41.143Z,4.25
2023-01-15T13:41:08.751Z,3.58
2023-01-15T13:43:42.083Z,3.33
2023-01-15T13:46:19.246Z,4.45
2023-01-15T13:48:49.915Z,3.60
2023-01-15T13:51:43.315Z,4.57
2023-01-15T13:54:17.352Z,4.32
2023-01-15T13:56:45.650Z,5.32
2023-01-15T13:59:43.352Z,4.13
2023-01-15T14:02:31.701Z,5.47
2023-01-15T14:04:58.807Z,5.40
2023-01-15T14:07:33.134Z,5.05
2023-01-15T14:10:18.208Z,4.63
2023-01-15T14:13:15.629Z,3.78
2023-01-15T14:16:12.662Z,2.97
2023-01-15T14:19:12.574Z,4.03
2023-01-15T14:21:51.555Z,4.72
2023-01-15T14:24:57.117Z,4.22
2023-01-15T14:27:54.581Z,4.38
2023-01-15T14:30:44.647Z,4.85
2023-01-15T14:33:20.665Z,6.22
2023-01-15T14:35:48.247Z,5.70
2023-01-15T14:38:22.777Z,5.40
2023-01-15T14:41:01.293Z,2.97
2023-01-15T14:43:35.311Z,3.80
2023-01-15T14:46:23.972Z,4.18
2023-01-15T14:48:50.526Z,5.40
2023-01-15T14:51:25.327Z,4.43
2023-01-15T14:54:11.154Z,3.42
2023-01-15T14:56:49.107Z,6.53
2023-01-15T14:59:34.185Z,5.03
2023-01-15T15:02:05.058Z,4.95
2023-01-15T15:04:43.705Z,5.10
2023-01-15T15:07:16.804Z,5.28
2023-01-15T15:09:50.478Z,4.82
2023-01-15T15:12:54.123Z,4.75
2023-01-15T15:15:26.767Z,7.82
2023-01-15T15:18:06.111Z,8.30
2023-01-15T15:20:41.836Z,6.88
2023-01-15T15:23:37.427Z,4.30
2023-01-15T15:26:17.769Z,4.47
2023-01-15T15:28:56.218Z,5.40
2023-01-15T15:31:26.137Z,6.47
2023-01-15T15:33:55.394Z,5.47
2023-01-15T15:36:24.512Z,2.97
2023-01-15T15:38:56.654Z,2.70
2023-01-15T15:41:46.009Z,5.22
2023-01-15T15:44:36.943Z,4.38
2023-01-15T15:47:39.855Z,2.55
2023-01-15T15:50:07.344Z,2.38
2023-01-15T15:52:35.621Z,5.35
2023-01-15T15:55:06.096Z,5.20
2023-01-15T15:57:35.164Z,5.45
2023-01-15T16:00:02.476Z,4.10
2023-01-15T16:02:36.407Z,2.90
2023-01-15T16:05:19.348Z,6.88
2023-01-15T16:07:46.649Z,3.67
2023-01-15T16:10:14.580Z,5.15
2023-01-15T16:12:50.681Z,4.72
2023-01-15T16:15:28.518Z,6.30
2023-01-15T16:17:57.657Z,5.05
2023-01-15T16:20:25.345Z,3.28
2023-01-15T16:22:56.473Z,2.08
2023-01-15T16:25:25.693Z,3.80
2023-01-15T16:27:52.965Z,4.90
2023-01-15T16:30:20.924Z,2.95
2023-01-15T16:32:49.166Z,2.58
2023-01-15T16:35:25.019Z,4.82
2023-01-15T16:37:55.313Z,4.15
2023-01-15T16:40:24.851Z,5.85
2023-01-15T16:43:04.160Z,4.10
2023-01-15T16:45:30.910Z,3.45
2023-01-15T16:48:19.100Z,3.72
2023-01-15T16:50:45.766Z,3.88
2023-01-15T16:53:36.490Z,4.00
2023-01-15T16:56:03.371Z,6.20
2023-01-15T16:58:38.581Z,5.22
2023-01-15T17:01:25.948Z,4.40
2023-01-15T17:03:53.329Z,3.30
2023-01-15T17:06:25.059Z,2.63
2023-01-15T17:08:53.122Z,5.22
2023-01-15T17:11:30.641Z,3.40
2023-01-15T17:14:27.233Z,4.60
2023-01-15T17:17:21.461Z,1.63
2023-01-15T17:19:52.503Z,4.97
2023-01-15T17:22:26.770Z,3.33
2023-01-15T17:24:55.254Z,3.00
2023-01-15T17:27:22.371Z,3.53
2023-01-15T17:29:48.931Z,3.47
2023-01-15T17:32:30.106Z,1.92
2023-01-15T17:34:57.161Z,4.57
2023-01-15T17:37:23.806Z,3.35
2023-01-15T17:39:50.324Z,3.03
2023-01-15T17:42:19.398Z,3.05
2023-01-15T17:44:46.298Z,3.10
2023-01-15T17:47:12.918Z,1.85
2023-01-15T17:49:39.501Z,1.73
2023-01-15T17:52:08.373Z,2.55
2023-01-15T17:54:53.386Z,3.58
2023-01-15T17:57:38.608Z,1.87
2023-01-15T18:00:24.194Z,1.67
2023-01-15T18:03:09.668Z,3.50
2023-01-15T18:05:36.376Z,2.70
2023-01-15T18:08:06.536Z,2.42
2023-01-15T18:10:33.816Z,2.47
2023-01-15T18:13:02.074Z,1.73
2023-01-15T18:15:28.925Z,1.92
2023-01-15T18:17:55.840Z,2.13
2023-01-15T18:20:22.423Z,1.30
2023-01-15T18:22:49.031Z,3.53
2023-01-15T18:25:15.632Z,1.25
2023-01-15T18:27:45.150Z,1.33
2023-01-15T18:30:16.283Z,1.90
2023-01-15T18:32:44.322Z,2.30
2023-01-15T18:35:11.990Z,1.98
2023-01-15T18:37:44.011Z,2.53
2023-01-15T18:40:11.935Z,1.50
2023-01-15T18:42:57.726Z,2.15
2023-01-15T18:45:42.844Z,2.53
2023-01-15T18:48:09.425Z,1.90
2023-01-15T18:50:36.609Z,1.48
2023-01-15T18:53:03.266Z,2.67
2023-01-15T18:55:29.841Z,3.40
2023-01-15T18:57:57.072Z,1.55
2023-01-15T19:00:25.243Z,2.95
2023-01-15T19:02:52.359Z,2.45
2023-01-15T19:05:19.202Z,3.15
2023-01-15T19:07:45.813Z,3.13
2023-01-15T19:10:13.590Z,2.88
2023-01-15T19:12:40.231Z,3.45
2023-01-15T19:15:26.412Z,1.95
2023-01-15T19:18:11.685Z,5.13
2023-01-15T19:20:39.391Z,3.65
2023-01-15T19:23:06.805Z,5.35
2023-01-15T19:25:45.094Z,3.38
2023-01-15T19:28:17.665Z,4.53
2023-01-15T19:31:06.519Z,3.58
2023-01-15T19:33:33.832Z,3.53
2023-01-15T19:36:00.495Z,2.47
2023-01-15T19:38:27.066Z,4.45
2023-01-15T19:40:53.589Z,3.78
2023-01-15T19:43:38.799Z,2.85
2023-01-15T19:46:23.867Z,3.03
2023-01-15T19:49:09.142Z,2.58
2023-01-15T19:51:54.414Z,3.58
2023-01-15T19:54:40.913Z,3.17
2023-01-15T19:57:07.434Z,3.40
2023-01-15T19:59:33.995Z,5.90
2023-01-15T20:02:03.186Z,4.82
2023-01-15T20:04:31.223Z,4.28
2023-01-15T20:06:57.765Z,3.55
2023-01-15T20:09:24.355Z,4.00
2023-01-15T20:12:09.146Z,2.90
2023-01-15T20:14:35.678Z,4.78
2023-01-15T20:17:02.207Z,4.93
2023-01-15T20:19:28.744Z,2.72
2023-01-15T20:21:55.369Z,2.13
2023-01-15T20:24:23.032Z,3.40
2023-01-15T20:26:49.565Z,3.50
2023-01-15T20:29:16.096Z,4.43
2023-01-15T20:31:42.775Z,6.45
2023-01-15T20:34:09.397Z,5.15
2023-01-15T20:36:43.211Z,5.70
2023-01-15T20:39:09.766Z,5.82
2023-01-15T20:41:55.021Z,3.85
2023-01-15T20:44:39.968Z,4.15
2023-01-15T20:47:26.476Z,3.47
2023-01-15T20:49:53.026Z,3.90
2023-01-15T20:52:19.490Z,2.72
2023-01-15T20:54:45.976Z,5.55
2023-01-15T20:57:12.537Z,5.43
2023-01-15T20:59:39.065Z,6.40
2023-01-15T21:02:06.277Z,4.72
2023-01-15T21:04:32.999Z,5.78
2023-01-15T21:06:59.488Z,4.85
2023-01-15T21:09:26.075Z,6.18
2023-01-15T21:11:52.554Z,4.97
2023-01-15T21:14:19.063Z,7.03
2023-01-15T21:16:45.706Z,4.43
2023-01-15T21:19:12.253Z,9.32
2023-01-15T21:21:38.976Z,2.65
2023-01-15T21:24:05.827Z,6.68
2023-01-15T21:26:34.689Z,7.78
2023-01-15T21:29:01.213Z,7.10
2023-01-15T21:31:30.550Z,5.05
2023-01-15T21:33:57.082Z,4.63
2023-01-15T21:36:24.448Z,4.72
2023-01-15T21:38:53.407Z,8.43
2023-01-15T21:41:41.321Z,5.03
2023-01-15T21:44:50.518Z,6.13
2023-01-15T21:47:19.075Z,7.85
2023-01-15T21:49:46.305Z,5.55
2023-01-15T21:52:18.502Z,6.13
2023-01-15T21:54:46.370Z,5.05
2023-01-15T21:57:13.669Z,5.57
2023-01-15T21:59:41.121Z,12.75
2023-01-15T22:02:15.042Z,9.00
2023-01-15T22:04:43.430Z,6.25
2023-01-15T22:07:10.897Z,6.15
2023-01-15T22:09:37.745Z,6.53
2023-01-15T22:12:05.124Z,6.68
2023-01-15T22:14:32.878Z,3.95
2023-01-15T22:17:01.606Z,8.00
2023-01-15T22:19:29.859Z,7.60
2023-01-15T22:22:03.160Z,4.38
2023-01-15T22:24:32.807Z,3.60
2023-01-15T22:27:00.956Z,3.90
2023-01-15T22:29:32.315Z,6.00
2023-01-15T22:31:59.371Z,9.20
2023-01-15T22:34:27.680Z,6.00
2023-01-15T22:36:54.958Z,5.50
2023-01-15T22:39:23.259Z,4.22
2023-01-15T22:42:08.589Z,4.35
2023-01-15T22:44:35.755Z,5.90
2023-01-15T22:47:03.077Z,3.15
2023-01-15T22:49:29.655Z,3.38
2023-01-15T22:51:56.451Z,4.35
2023-01-15T22:54:23.591Z,4.53
2023-01-15T22:56:50.104Z,3.60
2023-01-15T22:59:16.804Z,4.88
2023-01-15T23:01:43.789Z,4.32
2023-01-15T23:04:16.671Z,4.28
2023-01-15T23:06:44.293Z,5.03
2023-01-15T23:09:11.246Z,3.42
2023-01-15T23:11:38.774Z,3.95
2023-01-15T23:14:06.721Z,3.88
2023-01-15T23:16:33.308Z,3.30
2023-01-15T23:18:59.866Z,3.00
2023-01-15T23:21:26.860Z,3.42
2023-01-15T23:23:55.427Z,2.58
2023-01-15T23:26:23.187Z,4.65
2023-01-15T23:28:50.975Z,1.83
2023-01-15T23:31:19.258Z,1.65
2023-01-15T23:33:46.134Z,1.98
2023-01-15T23:36:13.373Z,2.55
2023-01-15T23:38:41.518Z,6.28
2023-01-15T23:41:09.909Z,2.75
2023-01-15T23:43:54.845Z,3.28
2023-01-15T23:46:33.480Z,1.70
2023-01-15T23:49:05.052Z,3.13
2023-01-15T23:51:32.520Z,1.30
2023-01-15T23:53:59.750Z,2.83
2023-01-15T23:56:26.956Z,1.63
2023-01-15T23:58:54.302Z,2.38
